MROC - Juan Santamaria Intl.
MROC 050400Z 09006KT 050V110 9999 FEW045 22/17 A3002 NOSIG
Observed:
Wind:
visibility:
Flight Rules:
Cloud Levels:
Temperature:
Humidity:
Pressure: